sensor_id;sensor_type;location;lat;lon;timestamp;temperature;humidity
1453;DHT22;720;47.738;7.998;2022-08-01T00:00:32;17.50;93.90
1453;DHT22;720;47.738;7.998;2022-08-01T00:02:58;17.60;94.30
1453;DHT22;720;47.738;7.998;2022-08-01T00:05:23;17.60;94.40
1453;DHT22;720;47.738;7.998;2022-08-01T00:07:49;17.60;94.50
1453;DHT22;720;47.738;7.998;2022-08-01T00:10:16;17.60;94.40
1453;DHT22;720;47.738;7.998;2022-08-01T00:12:43;17.50;94.40
1453;DHT22;720;47.738;7.998;2022-08-01T00:15:11;17.60;94.40
1453;DHT22;720;47.738;7.998;2022-08-01T00:17:37;17.50;94.30
1453;DHT22;720;47.738;7.998;2022-08-01T00:20:04;17.50;94.70
1453;DHT22;720;47.738;7.998;2022-08-01T00:22:31;17.50;94.60
1453;DHT22;720;47.738;7.998;2022-08-01T00:24:57;17.50;94.70
1453;DHT22;720;47.738;7.998;2022-08-01T00:27:23;17.50;94.80
1453;DHT22;720;47.738;7.998;2022-08-01T00:29:48;17.50;94.60
1453;DHT22;720;47.738;7.998;2022-08-01T00:32:14;17.40;94.50
1453;DHT22;720;47.738;7.998;2022-08-01T00:34:39;17.40;94.70
1453;DHT22;720;47.738;7.998;2022-08-01T00:37:05;17.40;94.90
1453;DHT22;720;47.738;7.998;2022-08-01T00:39:31;17.40;94.70
1453;DHT22;720;47.738;7.998;2022-08-01T00:41:58;17.40;94.80
1453;DHT22;720;47.738;7.998;2022-08-01T00:44:24;17.40;94.80
1453;DHT22;720;47.738;7.998;2022-08-01T00:46:50;17.30;95.00
1453;DHT22;720;47.738;7.998;2022-08-01T00:49:15;17.20;95.30
1453;DHT22;720;47.738;7.998;2022-08-01T00:51:41;17.30;95.20
1453;DHT22;720;47.738;7.998;2022-08-01T00:54:07;17.20;95.50
1453;DHT22;720;47.738;7.998;2022-08-01T00:56:33;17.20;95.70
1453;DHT22;720;47.738;7.998;2022-08-01T00:58:59;17.20;95.70
1453;DHT22;720;47.738;7.998;2022-08-01T01:01:25;17.10;95.60
1453;DHT22;720;47.738;7.998;2022-08-01T01:03:51;17.20;95.80
1453;DHT22;720;47.738;7.998;2022-08-01T01:06:27;17.20;96.00
1453;DHT22;720;47.738;7.998;2022-08-01T01:14:30;17.10;95.70
1453;DHT22;720;47.738;7.998;2022-08-01T01:16:57;17.10;95.70
1453;DHT22;720;47.738;7.998;2022-08-01T01:19:28;17.10;96.10
1453;DHT22;720;47.738;7.998;2022-08-01T01:22:17;17.10;96.20
1453;DHT22;720;47.738;7.998;2022-08-01T01:30:38;17.00;96.50
1453;DHT22;720;47.738;7.998;2022-08-01T01:33:08;16.90;96.50
1453;DHT22;720;47.738;7.998;2022-08-01T01:35:38;16.90;96.70
1453;DHT22;720;47.738;7.998;2022-08-01T01:38:37;16.90;96.60
1453;DHT22;720;47.738;7.998;2022-08-01T01:41:07;17.00;96.30
1453;DHT22;720;47.738;7.998;2022-08-01T01:43:35;17.00;96.10
1453;DHT22;720;47.738;7.998;2022-08-01T01:46:03;16.90;96.40
1453;DHT22;720;47.738;7.998;2022-08-01T01:48:29;16.90;96.10
1453;DHT22;720;47.738;7.998;2022-08-01T01:50:55;16.90;96.10
1453;DHT22;720;47.738;7.998;2022-08-01T01:53:22;16.80;96.40
1453;DHT22;720;47.738;7.998;2022-08-01T01:55:50;16.80;96.60
1453;DHT22;720;47.738;7.998;2022-08-01T01:58:17;16.80;96.30
1453;DHT22;720;47.738;7.998;2022-08-01T02:00:47;16.80;96.50
1453;DHT22;720;47.738;7.998;2022-08-01T02:03:14;16.70;96.60
1453;DHT22;720;47.738;7.998;2022-08-01T02:05:41;16.60;96.80
1453;DHT22;720;47.738;7.998;2022-08-01T02:08:10;16.60;96.90
1453;DHT22;720;47.738;7.998;2022-08-01T02:10:37;16.70;96.90
1453;DHT22;720;47.738;7.998;2022-08-01T02:13:05;16.70;97.00
1453;DHT22;720;47.738;7.998;2022-08-01T02:15:34;16.60;97.50
1453;DHT22;720;47.738;7.998;2022-08-01T02:18:03;16.50;97.20
1453;DHT22;720;47.738;7.998;2022-08-01T02:20:34;16.50;97.60
1453;DHT22;720;47.738;7.998;2022-08-01T02:23:07;16.40;97.70
1453;DHT22;720;47.738;7.998;2022-08-01T02:25:42;16.40;97.80
1453;DHT22;720;47.738;7.998;2022-08-01T02:28:28;16.30;97.80
1453;DHT22;720;47.738;7.998;2022-08-01T02:30:58;16.20;98.10
1453;DHT22;720;47.738;7.998;2022-08-01T02:33:38;16.10;98.00
1453;DHT22;720;47.738;7.998;2022-08-01T02:36:05;16.10;97.70
1453;DHT22;720;47.738;7.998;2022-08-01T02:38:33;16.10;97.80
1453;DHT22;720;47.738;7.998;2022-08-01T02:41:07;16.00;98.00
1453;DHT22;720;47.738;7.998;2022-08-01T02:43:40;16.00;98.00
1453;DHT22;720;47.738;7.998;2022-08-01T02:46:08;15.90;98.20
1453;DHT22;720;47.738;7.998;2022-08-01T02:48:38;15.80;98.50
1453;DHT22;720;47.738;7.998;2022-08-01T02:51:06;15.80;98.60
1453;DHT22;720;47.738;7.998;2022-08-01T02:53:34;15.80;98.60
1453;DHT22;720;47.738;7.998;2022-08-01T02:56:08;15.90;98.70
1453;DHT22;720;47.738;7.998;2022-08-01T02:58:35;15.90;98.50
1453;DHT22;720;47.738;7.998;2022-08-01T03:01:05;15.80;98.40
1453;DHT22;720;47.738;7.998;2022-08-01T03:03:32;15.80;98.70
1453;DHT22;720;47.738;7.998;2022-08-01T03:05:59;15.80;98.60
1453;DHT22;720;47.738;7.998;2022-08-01T03:08:27;15.80;98.50
1453;DHT22;720;47.738;7.998;2022-08-01T03:10:55;15.80;98.60
1453;DHT22;720;47.738;7.998;2022-08-01T03:13:22;15.80;98.70
1453;DHT22;720;47.738;7.998;2022-08-01T03:15:49;15.80;98.80
1453;DHT22;720;47.738;7.998;2022-08-01T03:18:16;15.70;98.80
1453;DHT22;720;47.738;7.998;2022-08-01T03:20:43;15.60;99.10
1453;DHT22;720;47.738;7.998;2022-08-01T03:23:11;15.60;99.00
1453;DHT22;720;47.738;7.998;2022-08-01T03:25:41;15.60;98.90
1453;DHT22;720;47.738;7.998;2022-08-01T03:28:10;15.60;99.20
1453;DHT22;720;47.738;7.998;2022-08-01T03:30:38;15.50;99.10
1453;DHT22;720;47.738;7.998;2022-08-01T03:33:04;15.50;99.10
1453;DHT22;720;47.738;7.998;2022-08-01T03:35:34;15.50;99.20
1453;DHT22;720;47.738;7.998;2022-08-01T03:38:01;15.50;99.30
1453;DHT22;720;47.738;7.998;2022-08-01T03:40:43;15.40;99.40
1453;DHT22;720;47.738;7.998;2022-08-01T03:43:34;15.50;99.70
1453;DHT22;720;47.738;7.998;2022-08-01T03:46:05;15.60;99.90
1453;DHT22;720;47.738;7.998;2022-08-01T03:48:37;16.30;99.90
1453;DHT22;720;47.738;7.998;2022-08-01T03:51:05;16.90;99.10
1453;DHT22;720;47.738;7.998;2022-08-01T03:53:33;17.50;97.70
1453;DHT22;720;47.738;7.998;2022-08-01T03:56:01;18.10;97.00
1453;DHT22;720;47.738;7.998;2022-08-01T03:58:29;18.50;95.70
1453;DHT22;720;47.738;7.998;2022-08-01T04:00:55;18.80;94.60
1453;DHT22;720;47.738;7.998;2022-08-01T04:03:21;19.00;93.10
1453;DHT22;720;47.738;7.998;2022-08-01T04:05:47;18.70;92.80
1453;DHT22;720;47.738;7.998;2022-08-01T04:08:13;18.00;93.20
1453;DHT22;720;47.738;7.998;2022-08-01T04:10:38;17.40;94.30
1453;DHT22;720;47.738;7.998;2022-08-01T04:13:04;17.10;95.30
1453;DHT22;720;47.738;7.998;2022-08-01T04:15:30;16.70;95.90
1453;DHT22;720;47.738;7.998;2022-08-01T04:17:56;16.40;96.30
1453;DHT22;720;47.738;7.998;2022-08-01T04:20:21;16.20;97.00
1453;DHT22;720;47.738;7.998;2022-08-01T04:22:47;16.00;97.60
1453;DHT22;720;47.738;7.998;2022-08-01T04:25:17;15.90;98.00
1453;DHT22;720;47.738;7.998;2022-08-01T04:27:47;15.90;98.10
1453;DHT22;720;47.738;7.998;2022-08-01T04:30:15;15.80;98.40
1453;DHT22;720;47.738;7.998;2022-08-01T04:32:43;15.70;98.70
1453;DHT22;720;47.738;7.998;2022-08-01T04:35:12;15.70;99.00
1453;DHT22;720;47.738;7.998;2022-08-01T04:37:44;15.60;99.00
1453;DHT22;720;47.738;7.998;2022-08-01T04:40:11;15.60;99.10
1453;DHT22;720;47.738;7.998;2022-08-01T04:42:37;15.50;99.20
1453;DHT22;720;47.738;7.998;2022-08-01T04:45:04;15.50;99.30
1453;DHT22;720;47.738;7.998;2022-08-01T04:47:30;15.50;99.50
1453;DHT22;720;47.738;7.998;2022-08-01T04:49:56;15.50;99.60
1453;DHT22;720;47.738;7.998;2022-08-01T04:52:22;15.50;99.80
1453;DHT22;720;47.738;7.998;2022-08-01T04:54:48;15.60;99.90
1453;DHT22;720;47.738;7.998;2022-08-01T04:57:13;15.60;99.80
1453;DHT22;720;47.738;7.998;2022-08-01T04:59:42;15.70;99.90
1453;DHT22;720;47.738;7.998;2022-08-01T05:02:17;15.90;99.80
1453;DHT22;720;47.738;7.998;2022-08-01T05:04:45;16.30;99.60
1453;DHT22;720;47.738;7.998;2022-08-01T05:07:12;16.60;98.80
1453;DHT22;720;47.738;7.998;2022-08-01T05:09:39;17.00;98.10
1453;DHT22;720;47.738;7.998;2022-08-01T05:12:07;17.40;97.60
1453;DHT22;720;47.738;7.998;2022-08-01T05:14:33;17.90;96.50
1453;DHT22;720;47.738;7.998;2022-08-01T05:17:00;18.30;95.70
1453;DHT22;720;47.738;7.998;2022-08-01T05:19:32;18.50;95.00
1453;DHT22;720;47.738;7.998;2022-08-01T05:21:59;18.70;94.80
1453;DHT22;720;47.738;7.998;2022-08-01T05:24:27;18.70;94.40
1453;DHT22;720;47.738;7.998;2022-08-01T05:26:56;18.90;93.80
1453;DHT22;720;47.738;7.998;2022-08-01T05:29:23;19.30;93.80
1453;DHT22;720;47.738;7.998;2022-08-01T05:31:49;19.70;93.10
1453;DHT22;720;47.738;7.998;2022-08-01T05:34:14;20.30;92.00
1453;DHT22;720;47.738;7.998;2022-08-01T05:36:40;20.90;91.40
1453;DHT22;720;47.738;7.998;2022-08-01T05:39:06;21.30;90.30
1453;DHT22;720;47.738;7.998;2022-08-01T05:41:31;21.50;89.80
1453;DHT22;720;47.738;7.998;2022-08-01T05:43:57;21.60;88.50
1453;DHT22;720;47.738;7.998;2022-08-01T05:46:23;21.60;88.90
1453;DHT22;720;47.738;7.998;2022-08-01T05:48:48;21.80;88.60
1453;DHT22;720;47.738;7.998;2022-08-01T05:51:14;21.80;87.90
1453;DHT22;720;47.738;7.998;2022-08-01T05:53:40;21.70;87.60
1453;DHT22;720;47.738;7.998;2022-08-01T05:56:06;21.50;88.60
1453;DHT22;720;47.738;7.998;2022-08-01T05:58:31;21.40;89.60
1453;DHT22;720;47.738;7.998;2022-08-01T06:00:57;21.30;89.90
1453;DHT22;720;47.738;7.998;2022-08-01T06:03:23;21.20;90.00
1453;DHT22;720;47.738;7.998;2022-08-01T06:05:51;21.10;90.10
1453;DHT22;720;47.738;7.998;2022-08-01T06:08:17;21.10;89.70
1453;DHT22;720;47.738;7.998;2022-08-01T06:10:42;21.10;89.60
1453;DHT22;720;47.738;7.998;2022-08-01T06:13:08;21.20;89.00
1453;DHT22;720;47.738;7.998;2022-08-01T06:15:34;21.40;89.30
1453;DHT22;720;47.738;7.998;2022-08-01T06:17:59;21.70;89.80
1453;DHT22;720;47.738;7.998;2022-08-01T06:20:25;22.00;88.60
1453;DHT22;720;47.738;7.998;2022-08-01T06:22:51;22.40;86.40
1453;DHT22;720;47.738;7.998;2022-08-01T06:25:18;22.80;87.30
1453;DHT22;720;47.738;7.998;2022-08-01T06:27:44;23.10;86.50
1453;DHT22;720;47.738;7.998;2022-08-01T06:30:10;23.40;85.80
1453;DHT22;720;47.738;7.998;2022-08-01T06:32:36;23.50;84.90
1453;DHT22;720;47.738;7.998;2022-08-01T06:35:02;23.50;83.40
1453;DHT22;720;47.738;7.998;2022-08-01T06:37:31;23.70;82.30
1453;DHT22;720;47.738;7.998;2022-08-01T06:40:07;23.70;82.10
1453;DHT22;720;47.738;7.998;2022-08-01T06:42:34;23.80;83.20
1453;DHT22;720;47.738;7.998;2022-08-01T06:45:09;23.80;84.50
1453;DHT22;720;47.738;7.998;2022-08-01T06:47:36;24.00;83.10
1453;DHT22;720;47.738;7.998;2022-08-01T06:50:03;24.40;82.40
1453;DHT22;720;47.738;7.998;2022-08-01T06:52:29;25.70;80.90
1453;DHT22;720;47.738;7.998;2022-08-01T06:54:55;27.20;75.70
1453;DHT22;720;47.738;7.998;2022-08-01T06:57:20;28.80;70.40
1453;DHT22;720;47.738;7.998;2022-08-01T06:59:46;29.60;65.10
1453;DHT22;720;47.738;7.998;2022-08-01T07:02:12;29.80;61.80
1453;DHT22;720;47.738;7.998;2022-08-01T07:04:37;29.60;59.90
1453;DHT22;720;47.738;7.998;2022-08-01T07:07:03;29.50;57.70
1453;DHT22;720;47.738;7.998;2022-08-01T07:09:29;29.00;57.40
1453;DHT22;720;47.738;7.998;2022-08-01T07:11:55;28.80;59.10
1453;DHT22;720;47.738;7.998;2022-08-01T07:14:21;28.80;58.00
1453;DHT22;720;47.738;7.998;2022-08-01T07:16:47;28.80;57.00
1453;DHT22;720;47.738;7.998;2022-08-01T07:19:13;28.70;57.30
1453;DHT22;720;47.738;7.998;2022-08-01T07:21:39;28.30;56.60
1453;DHT22;720;47.738;7.998;2022-08-01T07:24:06;28.00;58.50
1453;DHT22;720;47.738;7.998;2022-08-01T07:26:32;28.10;58.00
1453;DHT22;720;47.738;7.998;2022-08-01T07:28:59;28.50;56.70
1453;DHT22;720;47.738;7.998;2022-08-01T07:31:24;29.00;55.40
1453;DHT22;720;47.738;7.998;2022-08-01T07:33:50;29.50;54.70
1453;DHT22;720;47.738;7.998;2022-08-01T07:36:17;30.20;52.90
1453;DHT22;720;47.738;7.998;2022-08-01T07:38:43;30.80;52.00
1453;DHT22;720;47.738;7.998;2022-08-01T07:41:08;31.50;50.20
1453;DHT22;720;47.738;7.998;2022-08-01T07:43:34;32.30;48.20
1453;DHT22;720;47.738;7.998;2022-08-01T07:46:04;32.90;46.80
1453;DHT22;720;47.738;7.998;2022-08-01T07:48:30;33.40;46.60
1453;DHT22;720;47.738;7.998;2022-08-01T07:50:56;34.80;44.40
1453;DHT22;720;47.738;7.998;2022-08-01T07:53:22;36.00;42.10
1453;DHT22;720;47.738;7.998;2022-08-01T07:55:47;37.00;40.40
1453;DHT22;720;47.738;7.998;2022-08-01T07:58:14;37.10;38.90
1453;DHT22;720;47.738;7.998;2022-08-01T08:00:39;37.20;38.30
1453;DHT22;720;47.738;7.998;2022-08-01T08:03:05;37.50;38.00
1453;DHT22;720;47.738;7.998;2022-08-01T08:05:31;37.90;36.50
1453;DHT22;720;47.738;7.998;2022-08-01T08:08:06;37.50;36.00
1453;DHT22;720;47.738;7.998;2022-08-01T08:10:32;37.20;37.10
1453;DHT22;720;47.738;7.998;2022-08-01T08:12:58;36.90;36.60
1453;DHT22;720;47.738;7.998;2022-08-01T08:15:24;36.70;36.50
1453;DHT22;720;47.738;7.998;2022-08-01T08:17:50;36.50;36.40
1453;DHT22;720;47.738;7.998;2022-08-01T08:20:15;36.80;37.00
1453;DHT22;720;47.738;7.998;2022-08-01T08:22:41;36.80;36.00
1453;DHT22;720;47.738;7.998;2022-08-01T08:25:07;37.10;35.60
1453;DHT22;720;47.738;7.998;2022-08-01T08:27:34;37.30;35.60
1453;DHT22;720;47.738;7.998;2022-08-01T08:30:00;37.40;34.70
1453;DHT22;720;47.738;7.998;2022-08-01T08:32:26;36.90;34.90
1453;DHT22;720;47.738;7.998;2022-08-01T08:34:51;36.80;36.10
1453;DHT22;720;47.738;7.998;2022-08-01T08:37:17;37.30;35.00
1453;DHT22;720;47.738;7.998;2022-08-01T08:39:43;37.00;34.40
1453;DHT22;720;47.738;7.998;2022-08-01T08:42:10;36.30;35.60
1453;DHT22;720;47.738;7.998;2022-08-01T08:44:36;36.00;35.50
1453;DHT22;720;47.738;7.998;2022-08-01T08:47:05;35.70;36.30
1453;DHT22;720;47.738;7.998;2022-08-01T08:49:32;36.10;35.50
1453;DHT22;720;47.738;7.998;2022-08-01T08:51:59;36.30;36.20
1453;DHT22;720;47.738;7.998;2022-08-01T08:54:26;36.20;35.20
1453;DHT22;720;47.738;7.998;2022-08-01T08:56:53;36.40;35.20
1453;DHT22;720;47.738;7.998;2022-08-01T08:59:19;36.50;35.40
1453;DHT22;720;47.738;7.998;2022-08-01T09:01:46;37.30;34.40
1453;DHT22;720;47.738;7.998;2022-08-01T09:04:12;37.30;33.70
1453;DHT22;720;47.738;7.998;2022-08-01T09:06:38;37.60;33.40
1453;DHT22;720;47.738;7.998;2022-08-01T09:09:04;37.10;33.60
1453;DHT22;720;47.738;7.998;2022-08-01T09:11:30;37.30;34.10
1453;DHT22;720;47.738;7.998;2022-08-01T09:16:33;38.00;32.80
1453;DHT22;720;47.738;7.998;2022-08-01T09:19:17;38.10;32.50
1453;DHT22;720;47.738;7.998;2022-08-01T09:24:21;39.00;31.60
1453;DHT22;720;47.738;7.998;2022-08-01T09:26:46;38.10;32.40
1453;DHT22;720;47.738;7.998;2022-08-01T09:29:39;37.60;33.50
1453;DHT22;720;47.738;7.998;2022-08-01T09:32:05;37.60;33.30
1453;DHT22;720;47.738;7.998;2022-08-01T09:34:31;36.60;32.00
1453;DHT22;720;47.738;7.998;2022-08-01T09:36:59;36.30;33.50
1453;DHT22;720;47.738;7.998;2022-08-01T09:39:28;37.00;32.30
1453;DHT22;720;47.738;7.998;2022-08-01T09:41:56;37.30;32.70
1453;DHT22;720;47.738;7.998;2022-08-01T09:44:43;37.50;30.30
1453;DHT22;720;47.738;7.998;2022-08-01T09:47:09;38.10;31.30
1453;DHT22;720;47.738;7.998;2022-08-01T09:49:37;38.40;29.50
1453;DHT22;720;47.738;7.998;2022-08-01T09:54:36;38.80;30.00
1453;DHT22;720;47.738;7.998;2022-08-01T09:57:16;37.70;29.70
1453;DHT22;720;47.738;7.998;2022-08-01T09:59:44;37.60;28.60
1453;DHT22;720;47.738;7.998;2022-08-01T10:02:25;37.30;29.60
1453;DHT22;720;47.738;7.998;2022-08-01T10:04:52;37.50;28.60
1453;DHT22;720;47.738;7.998;2022-08-01T10:07:18;37.30;30.40
1453;DHT22;720;47.738;7.998;2022-08-01T10:09:45;37.20;29.90
1453;DHT22;720;47.738;7.998;2022-08-01T10:12:13;37.00;30.30
1453;DHT22;720;47.738;7.998;2022-08-01T10:14:40;36.80;28.10
1453;DHT22;720;47.738;7.998;2022-08-01T10:17:09;35.60;29.10
1453;DHT22;720;47.738;7.998;2022-08-01T10:19:37;35.70;30.20
1453;DHT22;720;47.738;7.998;2022-08-01T10:22:08;36.00;31.80
1453;DHT22;720;47.738;7.998;2022-08-01T10:24:39;36.60;30.40
1453;DHT22;720;47.738;7.998;2022-08-01T10:27:08;36.30;31.60
1453;DHT22;720;47.738;7.998;2022-08-01T10:29:47;36.20;31.60
1453;DHT22;720;47.738;7.998;2022-08-01T10:32:15;35.90;31.60
1453;DHT22;720;47.738;7.998;2022-08-01T10:34:41;35.90;33.40
1453;DHT22;720;47.738;7.998;2022-08-01T10:37:07;36.20;31.70
1453;DHT22;720;47.738;7.998;2022-08-01T10:39:34;34.50;31.40
1453;DHT22;720;47.738;7.998;2022-08-01T10:42:00;34.10;34.10
1453;DHT22;720;47.738;7.998;2022-08-01T10:44:28;32.90;33.60
1453;DHT22;720;47.738;7.998;2022-08-01T10:46:59;32.90;35.50
1453;DHT22;720;47.738;7.998;2022-08-01T10:49:29;33.00;35.00
1453;DHT22;720;47.738;7.998;2022-08-01T10:51:55;33.20;36.90
1453;DHT22;720;47.738;7.998;2022-08-01T10:54:24;33.40;34.30
1453;DHT22;720;47.738;7.998;2022-08-01T10:56:51;33.70;36.20
1453;DHT22;720;47.738;7.998;2022-08-01T10:59:27;33.60;34.30
1453;DHT22;720;47.738;7.998;2022-08-01T11:01:57;33.50;34.20
1453;DHT22;720;47.738;7.998;2022-08-01T11:07:06;32.60;34.10
1453;DHT22;720;47.738;7.998;2022-08-01T11:10:03;32.20;35.50
1453;DHT22;720;47.738;7.998;2022-08-01T11:12:40;31.90;37.30
1453;DHT22;720;47.738;7.998;2022-08-01T11:17:34;31.90;37.70
1453;DHT22;720;47.738;7.998;2022-08-01T11:26:11;31.70;37.80
1453;DHT22;720;47.738;7.998;2022-08-01T11:30:46;31.10;38.80
1453;DHT22;720;47.738;7.998;2022-08-01T11:33:14;31.20;38.70
1453;DHT22;720;47.738;7.998;2022-08-01T11:38:44;30.90;37.90
1453;DHT22;720;47.738;7.998;2022-08-01T11:41:16;30.80;37.80
1453;DHT22;720;47.738;7.998;2022-08-01T11:43:58;30.60;38.70
1453;DHT22;720;47.738;7.998;2022-08-01T11:46:56;30.70;40.70
1453;DHT22;720;47.738;7.998;2022-08-01T11:49:43;30.70;39.50
1453;DHT22;720;47.738;7.998;2022-08-01T11:52:27;30.50;41.00
1453;DHT22;720;47.738;7.998;2022-08-01T11:55:04;30.30;38.20
1453;DHT22;720;47.738;7.998;2022-08-01T11:57:32;30.30;38.00
1453;DHT22;720;47.738;7.998;2022-08-01T12:00:17;30.40;38.00
1453;DHT22;720;47.738;7.998;2022-08-01T12:02:45;30.40;36.60
1453;DHT22;720;47.738;7.998;2022-08-01T12:05:12;30.40;37.40
1453;DHT22;720;47.738;7.998;2022-08-01T12:07:40;30.40;38.50
1453;DHT22;720;47.738;7.998;2022-08-01T12:10:08;30.50;38.90
1453;DHT22;720;47.738;7.998;2022-08-01T12:12:35;30.80;37.60
1453;DHT22;720;47.738;7.998;2022-08-01T12:15:05;30.30;37.10
1453;DHT22;720;47.738;7.998;2022-08-01T12:20:00;30.10;38.20
1453;DHT22;720;47.738;7.998;2022-08-01T12:22:26;29.90;37.40
1453;DHT22;720;47.738;7.998;2022-08-01T12:24:52;29.80;38.40
1453;DHT22;720;47.738;7.998;2022-08-01T12:27:28;29.40;37.10
1453;DHT22;720;47.738;7.998;2022-08-01T12:29:54;29.40;38.60
1453;DHT22;720;47.738;7.998;2022-08-01T12:32:24;29.60;40.10
1453;DHT22;720;47.738;7.998;2022-08-01T12:34:50;29.50;39.30
1453;DHT22;720;47.738;7.998;2022-08-01T12:37:17;29.60;39.70
1453;DHT22;720;47.738;7.998;2022-08-01T12:39:44;29.60;39.60
1453;DHT22;720;47.738;7.998;2022-08-01T12:42:11;29.70;40.30
1453;DHT22;720;47.738;7.998;2022-08-01T12:44:38;29.70;39.20
1453;DHT22;720;47.738;7.998;2022-08-01T12:47:07;29.90;39.40
1453;DHT22;720;47.738;7.998;2022-08-01T12:49:37;29.80;39.30
1453;DHT22;720;47.738;7.998;2022-08-01T12:52:03;29.40;38.10
1453;DHT22;720;47.738;7.998;2022-08-01T12:54:29;29.30;37.60
1453;DHT22;720;47.738;7.998;2022-08-01T12:56:55;29.40;38.50
1453;DHT22;720;47.738;7.998;2022-08-01T12:59:25;29.20;38.70
1453;DHT22;720;47.738;7.998;2022-08-01T13:01:53;29.30;39.60
1453;DHT22;720;47.738;7.998;2022-08-01T13:04:19;29.30;38.90
1453;DHT22;720;47.738;7.998;2022-08-01T13:06:45;29.30;40.10
1453;DHT22;720;47.738;7.998;2022-08-01T13:09:11;29.60;40.80
1453;DHT22;720;47.738;7.998;2022-08-01T13:11:39;29.40;40.00
1453;DHT22;720;47.738;7.998;2022-08-01T13:14:06;29.50;39.40
1453;DHT22;720;47.738;7.998;2022-08-01T13:16:32;29.40;39.90
1453;DHT22;720;47.738;7.998;2022-08-01T13:18:57;29.30;39.70
1453;DHT22;720;47.738;7.998;2022-08-01T13:21:28;29.20;39.20
1453;DHT22;720;47.738;7.998;2022-08-01T13:24:07;29.40;40.50
1453;DHT22;720;47.738;7.998;2022-08-01T13:29:39;29.40;40.70
1453;DHT22;720;47.738;7.998;2022-08-01T13:32:16;29.30;40.40
1453;DHT22;720;47.738;7.998;2022-08-01T13:34:42;29.20;42.00
1453;DHT22;720;47.738;7.998;2022-08-01T13:37:07;29.20;42.10
1453;DHT22;720;47.738;7.998;2022-08-01T13:39:33;29.30;40.50
1453;DHT22;720;47.738;7.998;2022-08-01T13:42:15;29.20;40.90
1453;DHT22;720;47.738;7.998;2022-08-01T13:44:41;29.40;39.80
1453;DHT22;720;47.738;7.998;2022-08-01T13:47:08;29.40;39.70
1453;DHT22;720;47.738;7.998;2022-08-01T13:49:34;29.40;40.90
1453;DHT22;720;47.738;7.998;2022-08-01T13:52:00;29.30;40.20
1453;DHT22;720;47.738;7.998;2022-08-01T13:54:25;29.30;40.30
1453;DHT22;720;47.738;7.998;2022-08-01T13:56:52;29.40;41.00
1453;DHT22;720;47.738;7.998;2022-08-01T13:59:18;29.30;40.70
1453;DHT22;720;47.738;7.998;2022-08-01T14:01:44;29.40;41.10
1453;DHT22;720;47.738;7.998;2022-08-01T14:04:09;29.40;41.80
1453;DHT22;720;47.738;7.998;2022-08-01T14:06:36;29.20;40.60
1453;DHT22;720;47.738;7.998;2022-08-01T14:09:03;29.30;41.20
1453;DHT22;720;47.738;7.998;2022-08-01T14:11:29;29.20;40.80
1453;DHT22;720;47.738;7.998;2022-08-01T14:13:55;29.10;39.60
1453;DHT22;720;47.738;7.998;2022-08-01T14:16:21;28.90;40.10
1453;DHT22;720;47.738;7.998;2022-08-01T14:18:47;28.90;40.40
1453;DHT22;720;47.738;7.998;2022-08-01T14:21:13;28.80;40.60
1453;DHT22;720;47.738;7.998;2022-08-01T14:23:40;28.70;40.20
1453;DHT22;720;47.738;7.998;2022-08-01T14:26:05;28.50;41.20
1453;DHT22;720;47.738;7.998;2022-08-01T14:28:31;28.40;41.60
1453;DHT22;720;47.738;7.998;2022-08-01T14:30:59;28.40;42.00
1453;DHT22;720;47.738;7.998;2022-08-01T14:33:25;28.30;41.60
1453;DHT22;720;47.738;7.998;2022-08-01T14:35:50;28.40;42.50
1453;DHT22;720;47.738;7.998;2022-08-01T14:38:16;28.50;43.00
1453;DHT22;720;47.738;7.998;2022-08-01T14:40:42;28.50;42.30
1453;DHT22;720;47.738;7.998;2022-08-01T14:43:07;28.70;41.90
1453;DHT22;720;47.738;7.998;2022-08-01T14:45:33;28.60;41.70
1453;DHT22;720;47.738;7.998;2022-08-01T14:47:59;28.40;43.10
1453;DHT22;720;47.738;7.998;2022-08-01T14:50:25;28.40;43.60
1453;DHT22;720;47.738;7.998;2022-08-01T14:52:53;28.50;43.70
1453;DHT22;720;47.738;7.998;2022-08-01T14:55:19;28.50;43.20
1453;DHT22;720;47.738;7.998;2022-08-01T14:57:49;28.70;42.90
1453;DHT22;720;47.738;7.998;2022-08-01T15:00:15;28.70;42.40
1453;DHT22;720;47.738;7.998;2022-08-01T15:02:41;28.70;42.20
1453;DHT22;720;47.738;7.998;2022-08-01T15:05:07;28.80;44.30
1453;DHT22;720;47.738;7.998;2022-08-01T15:07:33;29.00;43.50
1453;DHT22;720;47.738;7.998;2022-08-01T15:09:58;29.10;42.00
1453;DHT22;720;47.738;7.998;2022-08-01T15:12:24;29.20;41.40
1453;DHT22;720;47.738;7.998;2022-08-01T15:14:50;29.40;43.00
1453;DHT22;720;47.738;7.998;2022-08-01T15:17:26;29.50;40.90
1453;DHT22;720;47.738;7.998;2022-08-01T15:19:59;29.20;40.70
1453;DHT22;720;47.738;7.998;2022-08-01T15:22:25;29.00;41.80
1453;DHT22;720;47.738;7.998;2022-08-01T15:24:52;28.80;42.00
1453;DHT22;720;47.738;7.998;2022-08-01T15:27:18;28.40;41.60
1453;DHT22;720;47.738;7.998;2022-08-01T15:29:44;28.30;42.70
1453;DHT22;720;47.738;7.998;2022-08-01T15:32:11;28.10;43.90
1453;DHT22;720;47.738;7.998;2022-08-01T15:34:38;27.80;43.30
1453;DHT22;720;47.738;7.998;2022-08-01T15:37:04;27.80;44.60
1453;DHT22;720;47.738;7.998;2022-08-01T15:39:31;27.80;44.20
1453;DHT22;720;47.738;7.998;2022-08-01T15:41:59;27.80;44.80
1453;DHT22;720;47.738;7.998;2022-08-01T15:44:25;27.60;43.70
1453;DHT22;720;47.738;7.998;2022-08-01T15:46:51;27.70;43.60
1453;DHT22;720;47.738;7.998;2022-08-01T15:49:17;27.60;43.70
1453;DHT22;720;47.738;7.998;2022-08-01T15:51:43;27.60;45.60
1453;DHT22;720;47.738;7.998;2022-08-01T15:54:09;27.60;45.30
1453;DHT22;720;47.738;7.998;2022-08-01T15:56:36;27.70;44.70
1453;DHT22;720;47.738;7.998;2022-08-01T15:59:03;27.80;47.90
1453;DHT22;720;47.738;7.998;2022-08-01T16:01:29;27.60;48.10
1453;DHT22;720;47.738;7.998;2022-08-01T16:03:56;27.60;46.20
1453;DHT22;720;47.738;7.998;2022-08-01T16:06:22;27.50;45.40
1453;DHT22;720;47.738;7.998;2022-08-01T16:08:49;27.30;45.40
1453;DHT22;720;47.738;7.998;2022-08-01T16:11:14;27.30;45.60
1453;DHT22;720;47.738;7.998;2022-08-01T16:13:40;27.20;45.40
1453;DHT22;720;47.738;7.998;2022-08-01T16:16:10;27.30;44.70
1453;DHT22;720;47.738;7.998;2022-08-01T16:18:37;27.20;46.00
1453;DHT22;720;47.738;7.998;2022-08-01T16:21:03;27.10;45.80
1453;DHT22;720;47.738;7.998;2022-08-01T16:23:29;27.10;46.30
1453;DHT22;720;47.738;7.998;2022-08-01T16:25:55;27.20;46.10
1453;DHT22;720;47.738;7.998;2022-08-01T16:28:21;27.10;46.80
1453;DHT22;720;47.738;7.998;2022-08-01T16:30:48;27.00;47.20
1453;DHT22;720;47.738;7.998;2022-08-01T16:33:13;26.90;46.90
1453;DHT22;720;47.738;7.998;2022-08-01T16:35:39;26.80;46.80
1453;DHT22;720;47.738;7.998;2022-08-01T16:38:08;26.90;47.50
1453;DHT22;720;47.738;7.998;2022-08-01T16:40:34;26.90;50.50
1453;DHT22;720;47.738;7.998;2022-08-01T16:42:59;26.80;50.30
1453;DHT22;720;47.738;7.998;2022-08-01T16:45:25;26.90;51.40
1453;DHT22;720;47.738;7.998;2022-08-01T16:47:51;26.90;49.80
1453;DHT22;720;47.738;7.998;2022-08-01T16:50:16;27.00;50.00
1453;DHT22;720;47.738;7.998;2022-08-01T16:52:42;26.90;49.80
1453;DHT22;720;47.738;7.998;2022-08-01T16:55:08;26.90;51.30
1453;DHT22;720;47.738;7.998;2022-08-01T16:57:34;26.80;50.10
1453;DHT22;720;47.738;7.998;2022-08-01T17:00:07;26.80;50.20
1453;DHT22;720;47.738;7.998;2022-08-01T17:02:34;26.70;51.90